Readfield, WI (54969)

4:26 PM CDT on May 06, 2015 (GMT -0500)
KWILARSE2 | | Change Station
CLOSE
Current Station
Personal Weather Station
Location: Lake Poygan - Town of Wolf River, WI
Elevation: 792 ft
Nearby Weather Stations

Elev 792 ft 44.17 °N, 88.77 °W | Updated 5 minutes ago

Mostly Cloudy
Mostly Cloudy
68.1 °F
Feels Like 68.1 °F
N
4.0
Wind Variable Wind from SE
Gusts 14.0 mph

Today
High -- | Low -- °F
--% Chance of Precip.
Yesterday
High -- | Low -- °F
Precip. -- in
5:39 AM 8:04 PM
Waning Gibbous, 92% visible
Pressure 30.13 in
Visibility 7.0 miles
Clouds Few 2800 ft
Mostly Cloudy 9500 ft
Dew Point 61 °F
Humidity 78%
Rainfall 0.04 in
Snow Depth Not available.
UV 3.2 out of 12
Pollen 10.00 out of 12
Air Quality Not available.
Flu Activity Local Activity
SPECI KATW 062010Z 12010KT 7SM FEW028 BKN095 18/13 A3013

More Conditions Fewer Conditions

Pressure 30.13 in
Visibility 7.0 miles
Clouds Few 2800 ft
Mostly Cloudy 9500 ft
Dew Point 61 °F
Humidity 78%
Rainfall 0.04 in
Snow Depth Not available.
UV 3.2 out of 12
Pollen 10.00 out of 12
Air Quality Not available.
Flu Activity Local Activity
SPECI KATW 062010Z 12010KT 7SM FEW028 BKN095 18/13 A3013

More Conditions Fewer Conditions

10-Day Weather Forecast

Almanac

Astronomy

May. 06, 2015 Rise Set
Actual Time
Civil Twilight
Nautical Twilight
Astronomical Twilight
Moon
Length of Visible Light
Length of Day
Tomorrow will be .
, % of the Moon is Illuminated

Today's Extremes

State Highs State Lows

Community

WunderPhotos

Upload Photos

1,819,021 photos uploaded!

WunderBlogs® & News

Nearby

Air Quality

  Air Quality AQ Index Pollutant
Not available.

Snow Depth

Station Depth Elevation

Earthquake Activity

City Distance Mag. Time & Date
Minimum magnitude displayed is 2.5.

Coastal Water Temperatures

Place Temperature

Stations

Nearby Weather Stations

Station Location Temp. Windchill Dew Point Humidity Wind Precip. Elev Updated Type